Time;durP1;ratioP1;P1;durP2;ratioP2;P2;SDS_P1;SDS_P2;PMS_P1;PMS_P2;Temp;Humidity;BMP_temperature;BMP_pressure;BME280_temperature;BME280_humidity;BME280_pressure;Samples;Min_cycle;Max_cycle;Signal;HPM_P1;HPM_P2
2022/04/27 00:09:49;;;;;;;40.00;37.20;;;9.10;99.90;;;;;;6202522;22;20963;-76
2022/04/27 00:12:16;;;;;;;40.80;37.80;;;9.20;99.90;;;;;;6212933;23;20412;-74
2022/04/27 00:14:42;;;;;;;41.00;37.90;;;9.10;99.90;;;;;;6212688;23;20754;-76
2022/04/27 00:17:09;;;;;;;41.83;38.50;;;9.20;99.90;;;;;;6212198;23;20416;-76
2022/04/27 00:19:36;;;;;;;40.97;37.87;;;9.20;99.90;;;;;;6212095;23;20416;-77
2022/04/27 00:22:03;;;;;;;41.80;38.40;;;9.20;99.90;;;;;;6212718;23;20448;-76
2022/04/27 00:24:29;;;;;;;39.83;36.93;;;9.20;99.90;;;;;;6212160;23;20404;-77
2022/04/27 00:26:57;;;;;;;41.63;38.43;;;9.20;99.90;;;;;;6212194;23;20419;-77
2022/04/27 00:29:24;;;;;;;41.43;38.40;;;9.20;99.90;;;;;;6211708;23;20416;-76
2022/04/27 00:31:51;;;;;;;41.30;38.03;;;9.20;99.90;;;;;;6212291;23;20413;-76
2022/04/27 00:34:17;;;;;;;41.60;38.60;;;9.20;99.90;;;;;;6212694;23;20405;-76
2022/04/27 00:36:44;;;;;;;41.00;37.60;;;9.10;99.90;;;;;;6211695;23;20903;-76
2022/04/27 00:39:11;;;;;;;40.37;37.47;;;9.10;99.90;;;;;;6211865;23;20417;-76
2022/04/27 00:41:38;;;;;;;42.17;38.73;;;9.20;99.90;;;;;;6211964;23;20440;-76
2022/04/27 00:44:06;;;;;;;40.07;37.17;;;9.10;99.90;;;;;;6212320;23;20421;-76
2022/04/27 00:46:33;;;;;;;41.03;37.70;;;9.10;99.90;;;;;;6212351;23;20416;-76
2022/04/27 00:48:59;;;;;;;41.13;38.03;;;9.10;99.90;;;;;;6211540;23;20409;-76
2022/04/27 00:51:29;;;;;;;41.73;38.40;;;9.10;99.90;;;;;;6211948;23;21020;-76
2022/04/27 00:53:58;;;;;;;42.13;38.80;;;9.10;99.90;;;;;;6211431;23;20518;-76
2022/04/27 00:56:25;;;;;;;43.40;39.90;;;9.10;99.90;;;;;;6211900;23;20408;-76
2022/04/27 00:58:51;;;;;;;43.80;40.17;;;9.10;99.90;;;;;;6211755;23;20416;-76
2022/04/27 01:01:20;;;;;;;43.27;39.47;;;9.10;99.90;;;;;;6212120;23;20448;-75
2022/04/27 01:03:47;;;;;;;45.77;41.97;;;9.10;99.90;;;;;;6212320;23;20412;-76
2022/04/27 01:06:15;;;;;;;46.47;42.40;;;9.30;99.90;;;;;;6211476;23;20413;-76
2022/04/27 01:08:42;;;;;;;42.47;39.07;;;9.30;99.90;;;;;;6211341;23;20440;-76
2022/04/27 01:11:09;;;;;;;45.87;41.93;;;9.40;99.90;;;;;;6212036;23;20396;-77
2022/04/27 01:13:38;;;;;;;44.57;40.93;;;9.40;99.90;;;;;;6212692;23;20416;-76
2022/04/27 01:16:05;;;;;;;44.17;40.57;;;9.50;99.90;;;;;;6212871;23;20412;-76
2022/04/27 01:18:33;;;;;;;44.90;41.13;;;9.50;99.90;;;;;;6212865;23;20732;-76
2022/04/27 01:21:02;;;;;;;43.47;40.00;;;9.50;99.90;;;;;;6212497;23;20409;-76
2022/04/27 01:23:29;;;;;;;43.57;39.87;;;9.50;99.90;;;;;;6212464;23;20508;-76
2022/04/27 01:25:57;;;;;;;44.20;40.27;;;9.40;99.90;;;;;;6212421;23;20677;-77
2022/04/27 01:28:25;;;;;;;44.87;40.93;;;9.40;99.90;;;;;;6212155;23;20405;-76
2022/04/27 01:30:57;;;;;;;46.03;41.67;;;9.50;99.90;;;;;;6212675;23;20413;-76
2022/04/27 01:33:24;;;;;;;43.80;40.13;;;9.50;99.90;;;;;;6212545;23;20409;-76
2022/04/27 01:35:52;;;;;;;44.30;40.70;;;9.60;99.90;;;;;;6212726;23;20432;-76
2022/04/27 01:38:20;;;;;;;44.13;40.53;;;9.60;99.90;;;;;;6212737;23;20920;-76
2022/04/27 01:40:47;;;;;;;45.97;42.10;;;9.60;99.90;;;;;;6212554;23;20409;-76
2022/04/27 01:43:15;;;;;;;44.63;40.57;;;9.60;99.90;;;;;;6212442;23;20420;-76
2022/04/27 01:45:42;;;;;;;43.43;39.60;;;9.60;99.90;;;;;;6212411;23;20413;-76
2022/04/27 01:48:10;;;;;;;41.23;37.63;;;9.70;99.90;;;;;;6212403;23;20723;-75
2022/04/27 01:50:37;;;;;;;42.27;38.57;;;9.70;99.90;;;;;;6212175;23;20412;-76
2022/04/27 01:55:50;;;;;;;41.70;37.70;;;9.70;99.90;;;;;;6212510;23;20759;-76
2022/04/27 01:58:16;;;;;;;43.67;39.57;;;9.70;99.90;;;;;;6212054;23;20528;-75
2022/04/27 02:00:46;;;;;;;40.57;36.57;;;9.70;99.90;;;;;;6212018;23;20930;-76
2022/04/27 02:03:13;;;;;;;44.07;39.77;;;9.60;99.90;;;;;;6212383;23;20445;-76
2022/04/27 02:05:39;;;;;;;43.27;39.20;;;9.60;99.90;;;;;;6214083;23;20929;-73
2022/04/27 02:08:07;;;;;;;43.30;38.70;;;9.60;99.90;;;;;;6214441;23;20448;-76
2022/04/27 02:10:34;;;;;;;42.03;38.03;;;9.70;99.90;;;;;;6214148;23;20443;-76
2022/04/27 02:13:03;;;;;;;43.20;39.20;;;9.80;99.90;;;;;;6214482;23;20405;-76
2022/04/27 02:15:29;;;;;;;42.03;38.10;;;9.70;99.90;;;;;;6214271;23;20736;-76
2022/04/27 02:17:56;;;;;;;44.47;39.90;;;9.60;99.90;;;;;;6214318;23;20415;-76
2022/04/27 02:20:23;;;;;;;42.00;38.10;;;9.70;99.90;;;;;;6214310;23;20418;-76
2022/04/27 02:22:50;;;;;;;41.63;37.53;;;9.70;99.90;;;;;;6214517;23;20445;-77
2022/04/27 02:25:17;;;;;;;41.13;37.43;;;9.80;99.90;;;;;;6214329;23;20732;-76
2022/04/27 02:27:44;;;;;;;40.00;36.27;;;9.80;99.90;;;;;;6213788;23;20416;-76
2022/04/27 02:30:13;;;;;;;41.03;36.73;;;9.80;99.90;;;;;;6214082;23;20410;-76
2022/04/27 02:32:40;;;;;;;39.30;35.70;;;9.80;99.90;;;;;;6214036;23;20405;-76
2022/04/27 02:35:08;;;;;;;43.13;39.03;;;9.80;99.90;;;;;;6214230;23;20413;-76
2022/04/27 02:37:35;;;;;;;38.67;34.90;;;9.80;99.90;;;;;;6214379;23;20416;-76
2022/04/27 02:40:03;;;;;;;42.07;37.87;;;9.80;99.90;;;;;;6214170;23;20413;-76
2022/04/27 02:42:30;;;;;;;38.90;35.10;;;9.70;99.90;;;;;;6213523;23;20440;-76
2022/04/27 02:44:57;;;;;;;39.60;35.70;;;9.70;99.90;;;;;;6213996;23;20408;-77
2022/04/27 02:47:25;;;;;;;36.87;33.57;;;9.60;99.90;;;;;;6213961;23;20416;-76
2022/04/27 02:52:36;;;;;;;39.47;35.57;;;9.60;99.90;;;;;;6214028;23;20780;-76
2022/04/27 02:55:04;;;;;;;38.10;34.40;;;9.70;99.90;;;;;;6213830;23;20417;-76
2022/04/27 02:57:30;;;;;;;38.17;34.50;;;9.70;99.90;;;;;;6214242;23;20409;-77
2022/04/27 02:59:57;;;;;;;41.30;36.87;;;9.70;99.90;;;;;;6213786;23;20412;-76
2022/04/27 03:02:25;;;;;;;40.97;36.97;;;9.80;99.90;;;;;;6212532;23;20453;-77
2022/04/27 03:04:52;;;;;;;42.23;37.93;;;9.80;99.90;;;;;;6214366;23;20416;-76
2022/04/27 03:07:19;;;;;;;41.40;37.30;;;9.80;99.90;;;;;;6214124;23;20418;-76
2022/04/27 03:09:47;;;;;;;38.97;35.13;;;9.80;99.90;;;;;;6213788;23;20531;-76
2022/04/27 03:12:13;;;;;;;39.03;35.23;;;9.80;99.90;;;;;;6214218;23;20408;-74
2022/04/27 03:14:40;;;;;;;41.83;37.57;;;9.80;99.90;;;;;;6213787;23;20454;-75
2022/04/27 03:17:07;;;;;;;40.40;36.30;;;9.80;99.90;;;;;;6213182;23;20904;-76
2022/04/27 03:19:35;;;;;;;37.37;33.83;;;9.80;99.90;;;;;;6214383;23;20405;-76
2022/04/27 03:22:02;;;;;;;38.83;35.10;;;9.90;99.90;;;;;;6214431;23;20799;-76
2022/04/27 03:24:28;;;;;;;39.80;35.97;;;9.80;99.90;;;;;;6213977;23;20409;-76
2022/04/27 03:26:55;;;;;;;38.50;34.40;;;9.90;99.90;;;;;;6214087;23;20417;-76
2022/04/27 03:29:22;;;;;;;37.00;33.43;;;9.80;99.90;;;;;;6214183;23;20731;-76
2022/04/27 03:31:48;;;;;;;38.57;34.57;;;9.80;99.90;;;;;;6213601;23;20409;-76
2022/04/27 03:34:15;;;;;;;36.53;32.90;;;9.70;99.90;;;;;;6214019;23;20405;-78
2022/04/27 03:36:43;;;;;;;38.77;35.13;;;9.80;99.90;;;;;;6214105;23;20416;-77
2022/04/27 03:39:10;;;;;;;39.10;34.30;;;9.80;99.90;;;;;;6213922;23;20413;-77
2022/04/27 03:41:36;;;;;;;39.50;35.30;;;9.80;99.90;;;;;;6213714;23;20404;-77
2022/04/27 03:44:04;;;;;;;39.90;35.80;;;9.90;99.90;;;;;;6213902;23;20402;-77
2022/04/27 03:46:30;;;;;;;36.67;33.23;;;9.80;99.90;;;;;;6213884;23;20412;-77
2022/04/27 03:48:57;;;;;;;38.77;35.07;;;9.90;99.90;;;;;;6213853;23;20470;-77
2022/04/27 03:51:24;;;;;;;37.07;33.30;;;9.90;99.90;;;;;;6213702;23;20732;-76
2022/04/27 03:53:52;;;;;;;37.73;34.00;;;9.90;99.90;;;;;;6214069;23;20409;-76
2022/04/27 03:56:19;;;;;;;38.17;34.40;;;9.90;99.90;;;;;;6214052;23;20731;-76
2022/04/27 03:58:45;;;;;;;37.20;33.80;;;9.90;99.90;;;;;;6213295;23;20420;-76
2022/04/27 04:01:12;;;;;;;38.63;34.43;;;9.90;99.90;;;;;;6213381;23;20404;-76
2022/04/27 04:03:39;;;;;;;36.27;32.67;;;10.00;99.90;;;;;;6213139;23;20445;-76
2022/04/27 04:06:06;;;;;;;36.70;33.27;;;10.00;99.90;;;;;;6213349;23;20413;-76
2022/04/27 04:08:33;;;;;;;40.20;34.13;;;9.90;99.90;;;;;;6213415;23;20457;-76
2022/04/27 04:11:01;;;;;;;38.03;34.40;;;9.90;99.90;;;;;;6212842;23;20438;-76
2022/04/27 04:13:27;;;;;;;35.20;31.90;;;9.90;99.90;;;;;;6213453;23;20427;-77
2022/04/27 04:15:54;;;;;;;37.93;34.37;;;10.00;99.90;;;;;;6213002;23;20425;-77
2022/04/27 04:18:21;;;;;;;34.97;31.63;;;9.90;99.90;;;;;;6213513;23;20725;-77
2022/04/27 04:20:48;;;;;;;37.07;33.40;;;9.90;99.90;;;;;;6213017;23;20496;-77
2022/04/27 04:23:14;;;;;;;35.90;32.40;;;10.00;99.90;;;;;;6213124;23;20451;-77
2022/04/27 04:28:33;;;;;;;35.57;32.17;;;10.10;99.90;;;;;;6213149;23;20423;-76
2022/04/27 04:31:01;;;;;;;36.43;32.90;;;10.00;99.90;;;;;;6213460;23;20882;-77
2022/04/27 04:33:28;;;;;;;37.93;34.20;;;10.00;99.90;;;;;;6213471;23;20406;-77
2022/04/27 04:35:56;;;;;;;37.57;33.87;;;10.00;99.90;;;;;;6213377;23;20416;-77
2022/04/27 04:38:23;;;;;;;36.40;33.10;;;10.00;99.90;;;;;;6213171;23;20409;-77
2022/04/27 04:40:50;;;;;;;39.23;35.43;;;10.00;99.90;;;;;;6213487;23;20453;-77
2022/04/27 04:43:17;;;;;;;37.70;33.90;;;10.10;99.90;;;;;;6212958;23;20491;-77
2022/04/27 04:45:45;;;;;;;34.17;30.83;;;10.10;99.90;;;;;;6213187;23;20723;-77
2022/04/27 04:48:12;;;;;;;37.37;33.70;;;10.00;99.90;;;;;;6212892;23;20416;-76
2022/04/27 04:50:38;;;;;;;38.60;35.00;;;10.10;99.90;;;;;;6213261;23;20432;-76
2022/04/27 04:53:05;;;;;;;35.13;31.73;;;10.20;99.90;;;;;;6212994;23;20412;-77
2022/04/27 04:55:32;;;;;;;37.17;33.57;;;10.10;99.90;;;;;;6212712;23;20409;-76
2022/04/27 04:57:59;;;;;;;38.67;33.57;;;10.20;99.90;;;;;;6213246;23;20904;-76
2022/04/27 05:00:26;;;;;;;36.77;33.17;;;10.10;99.90;;;;;;6213356;23;20411;-76
2022/04/27 05:02:54;;;;;;;38.57;34.63;;;10.20;99.90;;;;;;6213070;23;20447;-76
2022/04/27 05:05:21;;;;;;;36.17;32.70;;;10.20;99.90;;;;;;6213181;23;20409;-76
2022/04/27 05:07:48;;;;;;;38.07;34.17;;;10.10;99.90;;;;;;6212858;23;20433;-76
2022/04/27 05:10:15;;;;;;;37.70;33.60;;;10.20;99.90;;;;;;6212718;23;20531;-76
2022/04/27 05:12:41;;;;;;;36.80;32.83;;;10.20;99.90;;;;;;6213093;23;20462;-75
2022/04/27 05:15:09;;;;;;;38.23;34.33;;;10.30;99.90;;;;;;6213073;23;20882;-75
2022/04/27 05:17:36;;;;;;;39.87;35.97;;;10.40;99.90;;;;;;6212463;23;20409;-76
2022/04/27 05:20:05;;;;;;;35.90;32.40;;;10.50;99.90;;;;;;6213278;23;20408;-75
2022/04/27 05:22:38;;;;;;;37.17;33.43;;;10.70;99.90;;;;;;6212602;23;20959;-75
2022/04/27 05:25:06;;;;;;;37.67;34.00;;;10.80;99.90;;;;;;6213247;23;20415;-75
2022/04/27 05:27:33;;;;;;;37.87;33.90;;;10.90;99.90;;;;;;6213053;23;20420;-75
2022/04/27 05:32:44;;;;;;;37.20;33.60;;;10.90;99.90;;;;;;6212674;23;20369;-75
2022/04/27 05:35:13;;;;;;;36.47;32.93;;;11.00;99.90;;;;;;6212799;23;20416;-75
2022/04/27 05:37:40;;;;;;;36.53;32.90;;;11.10;99.90;;;;;;6212690;23;20741;-75
2022/04/27 05:40:08;;;;;;;37.33;33.67;;;11.30;99.90;;;;;;6212340;23;20443;-75
2022/04/27 05:42:36;;;;;;;38.20;34.53;;;11.30;99.90;;;;;;6212816;23;20436;-74
2022/04/27 05:45:03;;;;;;;35.63;32.20;;;11.40;99.90;;;;;;6212922;23;20774;-75
2022/04/27 05:47:30;;;;;;;33.87;30.53;;;11.50;99.90;;;;;;6212923;23;20418;-76
2022/04/27 05:49:56;;;;;;;37.73;34.20;;;11.50;99.90;;;;;;6212641;23;20412;-76
2022/04/27 05:52:24;;;;;;;35.03;31.67;;;11.70;99.90;;;;;;6212860;23;20727;-76
2022/04/27 05:54:52;;;;;;;35.60;32.20;;;11.70;99.90;;;;;;6212664;23;20405;-77
2022/04/27 05:57:19;;;;;;;32.20;29.37;;;11.80;99.90;;;;;;6212951;23;20435;-78
2022/04/27 05:59:47;;;;;;;31.10;28.30;;;11.80;99.90;;;;;;6212670;23;20409;-77
2022/04/27 06:02:14;;;;;;;31.50;28.57;;;11.80;99.90;;;;;;6210958;23;20431;-75
2022/04/27 06:04:41;;;;;;;32.70;29.70;;;11.80;99.90;;;;;;6209055;23;20415;-75
2022/04/27 06:07:08;;;;;;;32.27;29.07;;;11.70;99.90;;;;;;6212089;23;20409;-75
2022/04/27 06:09:36;;;;;;;32.93;29.93;;;11.80;99.90;;;;;;6212274;23;20436;-75
2022/04/27 06:12:05;;;;;;;32.60;29.50;;;11.80;99.90;;;;;;6212645;23;20416;-75
2022/04/27 06:14:32;;;;;;;35.07;31.67;;;11.90;99.90;;;;;;6211976;23;20958;-76
2022/04/27 06:16:58;;;;;;;35.90;32.43;;;12.20;99.90;;;;;;6212413;23;20708;-75
2022/04/27 06:19:25;;;;;;;32.10;29.10;;;12.20;99.90;;;;;;6212170;23;20412;-74
2022/04/27 06:21:52;;;;;;;32.77;29.87;;;12.20;99.90;;;;;;6212059;23;20896;-75
2022/04/27 06:24:18;;;;;;;33.40;30.30;;;12.20;99.90;;;;;;6212585;23;20445;-75
2022/04/27 06:26:47;;;;;;;34.40;31.20;;;12.40;99.90;;;;;;6212152;23;20416;-75
2022/04/27 06:29:13;;;;;;;33.63;30.47;;;12.50;99.90;;;;;;6212072;23;20405;-75
2022/04/27 06:31:40;;;;;;;33.50;30.30;;;12.50;99.90;;;;;;6212062;23;20409;-75
2022/04/27 06:34:07;;;;;;;33.73;30.83;;;12.60;99.90;;;;;;6212142;23;20405;-75
2022/04/27 06:36:34;;;;;;;32.80;29.83;;;12.80;99.90;;;;;;6212368;23;20413;-75
2022/04/27 06:39:01;;;;;;;32.80;30.00;;;13.00;99.90;;;;;;6212251;23;20456;-74
2022/04/27 06:41:28;;;;;;;32.97;29.80;;;12.90;99.90;;;;;;6212299;23;20408;-75
2022/04/27 06:43:56;;;;;;;33.87;30.43;;;12.90;99.90;;;;;;6211895;23;20978;-75
2022/04/27 06:46:22;;;;;;;35.17;31.93;;;12.80;99.90;;;;;;6212383;23;20416;-74
2022/04/27 06:48:49;;;;;;;29.37;26.67;;;13.10;99.90;;;;;;6212548;23;20450;-74
2022/04/27 06:51:17;;;;;;;32.10;29.10;;;13.10;99.90;;;;;;6213718;23;20409;-75
2022/04/27 06:53:44;;;;;;;31.40;28.27;;;12.90;99.90;;;;;;6213707;23;20412;-75
2022/04/27 06:56:11;;;;;;;30.90;28.13;;;12.80;99.90;;;;;;6213519;23;20421;-75
2022/04/27 06:58:38;;;;;;;30.33;27.43;;;13.20;99.90;;;;;;6213456;23;20411;-74
2022/04/27 07:01:06;;;;;;;29.67;27.07;;;13.20;99.90;;;;;;6213095;23;20408;-75
2022/04/27 07:03:33;;;;;;;32.50;29.73;;;13.10;99.90;;;;;;6213429;23;20440;-74
2022/04/27 07:06:00;;;;;;;31.40;28.60;;;13.00;99.90;;;;;;6213178;23;20412;-74
2022/04/27 07:08:28;;;;;;;31.10;28.47;;;12.90;99.90;;;;;;6213011;23;20478;-73
2022/04/27 07:10:55;;;;;;;29.57;26.70;;;12.60;99.90;;;;;;6212529;23;20771;-75
2022/04/27 07:13:22;;;;;;;28.97;26.63;;;12.70;99.90;;;;;;6213389;23;20405;-74
2022/04/27 07:15:49;;;;;;;28.13;25.67;;;12.60;99.90;;;;;;6213174;23;20731;-74
2022/04/27 07:18:17;;;;;;;29.67;27.07;;;12.60;99.90;;;;;;6213020;23;20412;-74
2022/04/27 07:20:44;;;;;;;27.17;24.90;;;12.50;99.90;;;;;;6212816;23;20405;-74
2022/04/27 07:23:10;;;;;;;27.97;25.40;;;12.20;99.90;;;;;;6212262;23;20710;-74
2022/04/27 07:25:37;;;;;;;26.77;24.67;;;12.10;99.90;;;;;;6212942;23;20409;-74
2022/04/27 07:28:04;;;;;;;27.07;24.77;;;12.20;99.90;;;;;;6212830;23;20405;-74
2022/04/27 07:30:31;;;;;;;25.80;23.50;;;12.20;99.90;;;;;;6212924;23;20413;-74
2022/04/27 07:32:58;;;;;;;26.10;24.00;;;12.30;99.90;;;;;;6212658;23;20411;-73
2022/04/27 07:35:26;;;;;;;27.20;24.90;;;12.10;99.90;;;;;;6212848;23;20743;-74
2022/04/27 07:37:52;;;;;;;24.47;22.53;;;12.20;99.90;;;;;;6213381;23;20428;-73
2022/04/27 07:40:19;;;;;;;25.50;23.43;;;12.50;99.90;;;;;;6213961;23;20420;-73
2022/04/27 07:42:47;;;;;;;24.40;22.13;;;12.70;99.90;;;;;;6213351;23;20737;-73
2022/04/27 07:45:14;;;;;;;26.60;23.87;;;12.60;99.90;;;;;;6212481;23;20413;-73
2022/04/27 07:47:42;;;;;;;24.30;22.33;;;12.80;99.90;;;;;;6212294;23;20631;-73
2022/04/27 07:50:10;;;;;;;25.90;23.70;;;12.90;99.90;;;;;;6212651;23;20420;-73
2022/04/27 07:52:38;;;;;;;24.97;22.70;;;13.30;99.90;;;;;;6212604;23;20404;-73
2022/04/27 07:55:07;;;;;;;25.00;23.00;;;13.50;99.90;;;;;;6212938;23;20743;-73
2022/04/27 07:57:34;;;;;;;23.50;21.67;;;13.60;99.90;;;;;;6212590;23;20411;-73
2022/04/27 08:00:04;;;;;;;23.23;20.90;;;13.90;99.90;;;;;;6212209;23;20740;-73
2022/04/27 08:02:31;;;;;;;24.70;22.70;;;14.60;99.90;;;;;;6212088;23;20415;-73
2022/04/27 08:04:58;;;;;;;22.17;20.47;;;15.10;99.90;;;;;;6212244;23;20835;-73
2022/04/27 08:07:25;;;;;;;21.50;19.97;;;15.40;99.90;;;;;;6212188;23;20412;-74
2022/04/27 08:09:53;;;;;;;21.93;20.33;;;15.60;99.90;;;;;;6212112;23;20753;-74
2022/04/27 08:12:19;;;;;;;24.23;22.43;;;15.30;99.90;;;;;;6212742;23;20405;-74
2022/04/27 08:14:46;;;;;;;23.50;21.70;;;14.70;99.90;;;;;;6212588;23;20411;-74
2022/04/27 08:17:13;;;;;;;24.63;22.53;;;14.60;99.90;;;;;;6212476;23;20408;-74
2022/04/27 08:19:40;;;;;;;23.43;21.43;;;14.70;99.90;;;;;;6212037;23;20404;-73
2022/04/27 08:22:08;;;;;;;24.70;22.67;;;14.60;99.90;;;;;;6212442;23;20512;-74
2022/04/27 08:24:40;;;;;;;23.60;21.80;;;14.40;99.90;;;;;;6212539;23;20440;-74
2022/04/27 08:27:08;;;;;;;24.13;22.23;;;14.70;99.90;;;;;;6212625;23;20397;-73
2022/04/27 08:29:34;;;;;;;23.50;21.63;;;15.00;99.90;;;;;;6212316;23;20468;-74
2022/04/27 08:32:01;;;;;;;22.20;20.50;;;15.40;99.90;;;;;;6212443;23;20409;-74
2022/04/27 08:34:28;;;;;;;21.67;20.00;;;15.50;99.90;;;;;;6212240;23;20408;-73
2022/04/27 08:36:55;;;;;;;20.63;19.03;;;15.50;99.90;;;;;;6212050;23;20427;-73
2022/04/27 08:39:21;;;;;;;21.53;20.03;;;15.30;99.90;;;;;;6212008;23;20409;-73
2022/04/27 08:41:48;;;;;;;21.60;19.90;;;15.60;99.90;;;;;;6212709;23;20431;-74
2022/04/27 08:44:17;;;;;;;20.67;19.10;;;15.80;99.90;;;;;;6211946;23;20445;-73
2022/04/27 08:46:44;;;;;;;21.43;19.73;;;15.80;99.90;;;;;;6211699;23;20495;-73
2022/04/27 08:49:11;;;;;;;21.10;19.50;;;16.20;99.90;;;;;;6211775;23;20405;-74
2022/04/27 08:51:39;;;;;;;18.87;17.47;;;16.60;99.90;;;;;;6212015;23;20409;-74
2022/04/27 08:54:07;;;;;;;21.10;19.50;;;16.90;99.90;;;;;;6211371;23;20408;-74
2022/04/27 08:56:34;;;;;;;17.17;15.97;;;17.00;99.90;;;;;;6212316;23;20413;-75
2022/04/27 08:59:02;;;;;;;18.50;17.30;;;17.50;99.90;;;;;;6210971;23;20780;-75
2022/04/27 09:01:30;;;;;;;16.87;15.83;;;17.20;99.90;;;;;;6211179;23;20421;-75
2022/04/27 09:04:14;;;;;;;17.47;16.27;;;17.50;99.90;;;;;;6210293;23;20463;-74
2022/04/27 09:06:41;;;;;;;17.03;16.03;;;17.70;99.90;;;;;;6210798;23;20464;-74
2022/04/27 09:09:10;;;;;;;16.13;15.23;;;17.70;99.80;;;;;;6210288;23;20444;-75
2022/04/27 09:11:37;;;;;;;16.40;15.20;;;17.70;97.90;;;;;;6211295;23;20766;-75
2022/04/27 09:14:06;;;;;;;15.30;14.20;;;17.20;99.50;;;;;;6211627;23;20408;-74
2022/04/27 09:22:05;;;;;;;15.50;14.50;;;17.00;99.50;;;;;;6212864;23;20443;-74
2022/04/27 09:24:48;;;;;;;16.03;15.03;;;16.50;99.90;;;;;;6212307;23;20507;-74
2022/04/27 09:27:18;;;;;;;15.53;14.53;;;16.40;99.90;;;;;;6211536;23;20389;-74
2022/04/27 09:29:57;;;;;;;15.30;14.30;;;16.20;99.90;;;;;;6212143;23;20438;-76
2022/04/27 09:32:26;;;;;;;15.97;14.97;;;16.00;99.90;;;;;;6212382;23;20874;-73
2022/04/27 09:34:53;;;;;;;14.47;13.67;;;15.60;99.90;;;;;;6212532;23;20408;-73
2022/04/27 09:37:21;;;;;;;15.23;14.33;;;15.70;99.90;;;;;;6212679;23;20413;-73
2022/04/27 09:40:02;;;;;;;14.23;13.43;;;15.90;99.90;;;;;;6211640;23;20919;-73
2022/04/27 09:42:32;;;;;;;14.37;13.50;;;16.10;99.90;;;;;;6211819;23;20399;-75
2022/04/27 09:45:15;;;;;;;15.13;14.23;;;16.20;99.90;;;;;;6211890;23;20444;-72
2022/04/27 09:47:47;;;;;;;14.53;13.80;;;16.50;99.90;;;;;;6211940;23;20756;-73
2022/04/27 09:50:14;;;;;;;13.10;12.50;;;16.20;99.90;;;;;;6211460;23;20426;-73
2022/04/27 09:52:43;;;;;;;14.67;13.97;;;16.10;99.20;;;;;;6211278;23;20935;-73
2022/04/27 09:55:10;;;;;;;13.13;12.53;;;16.30;99.90;;;;;;6211505;23;20915;-72
2022/04/27 09:57:40;;;;;;;14.57;13.70;;;16.60;99.20;;;;;;6211348;23;20401;-73
2022/04/27 10:00:09;;;;;;;14.30;13.20;;;16.60;98.60;;;;;;6211681;23;20404;-73
2022/04/27 10:02:38;;;;;;;14.70;13.80;;;16.50;99.20;;;;;;6212004;23;20439;-73
2022/04/27 10:05:08;;;;;;;13.33;12.73;;;16.80;98.80;;;;;;6211780;23;20441;-73
2022/04/27 10:07:36;;;;;;;14.30;13.60;;;17.20;97.60;;;;;;6211632;23;20751;-75
2022/04/27 10:10:04;;;;;;;14.30;13.50;;;17.90;96.30;;;;;;6211344;23;20944;-74
2022/04/27 10:12:35;;;;;;;13.50;12.80;;;18.10;96.70;;;;;;6211576;23;20478;-75
2022/04/27 10:15:02;;;;;;;14.60;13.80;;;18.20;96.00;;;;;;6211354;23;20713;-75
2022/04/27 10:17:29;;;;;;;14.57;13.87;;;18.20;95.00;;;;;;6212247;23;20741;-75
2022/04/27 10:19:56;;;;;;;13.10;12.53;;;18.60;94.50;;;;;;6212545;23;20409;-75
2022/04/27 10:22:30;;;;;;;14.33;13.53;;;19.00;94.60;;;;;;6212455;23;20416;-74
2022/04/27 10:24:57;;;;;;;13.90;13.30;;;19.20;93.80;;;;;;6212489;23;20971;-75
2022/04/27 10:27:26;;;;;;;12.80;12.23;;;19.00;93.10;;;;;;6214283;23;20504;-75
2022/04/27 10:29:58;;;;;;;13.43;12.73;;;18.30;93.70;;;;;;6214387;23;20518;-74
2022/04/27 10:32:36;;;;;;;13.37;12.70;;;17.90;95.10;;;;;;6214392;23;20393;-75
2022/04/27 10:35:17;;;;;;;12.63;12.03;;;17.10;96.50;;;;;;6214626;23;20404;-75
2022/04/27 10:37:47;;;;;;;13.47;12.87;;;17.00;96.90;;;;;;6214332;23;20439;-75
2022/04/27 10:40:31;;;;;;;12.97;12.37;;;16.80;97.10;;;;;;6213881;23;20900;-75
2022/04/27 10:43:10;;;;;;;12.37;11.77;;;17.30;96.80;;;;;;6214564;23;20389;-75
2022/04/27 10:45:38;;;;;;;13.30;12.60;;;17.50;96.50;;;;;;6214553;23;20429;-75
2022/04/27 10:48:07;;;;;;;13.37;12.77;;;17.30;96.30;;;;;;6210083;23;20787;-76
2022/04/27 10:50:35;;;;;;;13.53;12.83;;;17.20;96.40;;;;;;6213978;23;20919;-75
2022/04/27 10:53:19;;;;;;;13.20;12.50;;;16.90;96.90;;;;;;6214585;23;20416;-75
2022/04/27 10:55:53;;;;;;;12.90;12.20;;;17.00;97.20;;;;;;6210544;23;20904;-75
2022/04/27 10:58:32;;;;;;;13.90;13.20;;;17.10;97.70;;;;;;6214420;23;20393;-75
2022/04/27 11:01:27;;;;;;;13.40;12.77;;;17.30;96.90;;;;;;6214061;23;20400;-76
2022/04/27 11:03:56;;;;;;;14.00;13.33;;;17.90;96.30;;;;;;6213908;23;20389;-76
2022/04/27 11:06:23;;;;;;;14.83;14.13;;;17.90;95.80;;;;;;6213999;23;20409;-75
2022/04/27 11:09:06;;;;;;;14.63;13.70;;;17.50;95.50;;;;;;6214082;23;20445;-76
2022/04/27 11:11:32;;;;;;;14.90;14.20;;;17.40;95.80;;;;;;6214081;23;20409;-76
2022/04/27 11:14:01;;;;;;;14.90;14.20;;;17.30;96.90;;;;;;6213887;23;20404;-76
2022/04/27 11:16:28;;;;;;;14.40;13.80;;;17.10;96.40;;;;;;6213891;23;20460;-76
2022/04/27 11:18:56;;;;;;;15.57;14.57;;;16.90;96.70;;;;;;6213849;23;20415;-76
2022/04/27 11:21:24;;;;;;;15.40;14.40;;;16.60;96.90;;;;;;6213708;23;20409;-76
2022/04/27 11:23:52;;;;;;;14.73;14.03;;;17.00;97.50;;;;;;6214079;23;20412;-76
2022/04/27 11:26:20;;;;;;;14.97;14.17;;;18.20;95.60;;;;;;6214147;23;20472;-76
2022/04/27 11:28:48;;;;;;;15.17;14.47;;;18.60;94.40;;;;;;6213810;23;20408;-76
2022/04/27 11:31:16;;;;;;;14.60;14.00;;;19.70;92.40;;;;;;6213924;23;20408;-75
2022/04/27 11:33:43;;;;;;;14.83;14.13;;;20.70;90.00;;;;;;6213502;23;20420;-75
2022/04/27 11:36:21;;;;;;;15.80;15.10;;;20.80;90.10;;;;;;6210741;23;20408;-75
2022/04/27 11:38:49;;;;;;;15.17;14.47;;;21.20;88.50;;;;;;6213567;23;20451;-76
2022/04/27 11:41:18;;;;;;;16.37;15.67;;;22.10;85.10;;;;;;6213614;23;20415;-75
2022/04/27 11:43:47;;;;;;;15.47;14.77;;;21.50;84.50;;;;;;6213251;23;20416;-75
2022/04/27 11:46:14;;;;;;;15.00;13.70;;;20.10;87.30;;;;;;6213172;23;20436;-75
2022/04/27 11:48:46;;;;;;;13.70;13.10;;;19.50;90.70;;;;;;6213212;23;20767;-74
2022/04/27 11:51:13;;;;;;;15.37;14.60;;;19.70;90.50;;;;;;6213097;23;20780;-74
2022/04/27 11:53:45;;;;;;;15.10;14.40;;;19.90;90.40;;;;;;6213305;23;20412;-76
2022/04/27 11:56:12;;;;;;;14.40;13.60;;;19.60;90.40;;;;;;6213103;23;20459;-75
2022/04/27 11:58:38;;;;;;;15.00;14.07;;;19.70;89.70;;;;;;6213081;23;20405;-75
2022/04/27 12:01:06;;;;;;;15.50;14.70;;;20.30;89.40;;;;;;6213249;23;20719;-75
2022/04/27 12:03:41;;;;;;;14.70;14.00;;;20.20;88.70;;;;;;6212997;23;20416;-75
2022/04/27 12:06:08;;;;;;;14.77;14.00;;;20.40;86.80;;;;;;6212522;23;20758;-75
2022/04/27 12:08:42;;;;;;;14.13;13.43;;;19.70;89.00;;;;;;6213039;23;20811;-75
2022/04/27 12:11:09;;;;;;;14.30;13.70;;;19.30;88.60;;;;;;6213351;23;20392;-75
2022/04/27 12:13:36;;;;;;;15.60;14.80;;;19.20;90.20;;;;;;6213101;23;20409;-75
2022/04/27 12:16:03;;;;;;;14.97;14.27;;;18.90;91.20;;;;;;6212815;23;20408;-75
2022/04/27 12:18:31;;;;;;;15.30;14.60;;;19.00;91.60;;;;;;6212792;23;20408;-75
2022/04/27 12:20:59;;;;;;;16.10;14.97;;;19.20;91.70;;;;;;6212868;23;20405;-75
2022/04/27 12:23:37;;;;;;;14.43;13.50;;;19.50;91.00;;;;;;6212797;23;20466;-75
2022/04/27 12:26:06;;;;;;;15.00;14.30;;;19.00;91.00;;;;;;6213139;23;20458;-75
2022/04/27 12:28:44;;;;;;;13.80;13.20;;;18.60;91.70;;;;;;6212951;23;20412;-75
2022/04/27 12:31:11;;;;;;;14.60;13.90;;;18.70;91.70;;;;;;6212554;23;20805;-76
2022/04/27 12:33:42;;;;;;;15.20;14.37;;;18.90;91.70;;;;;;6213210;23;20412;-75
2022/04/27 12:38:59;;;;;;;15.50;14.80;;;18.10;91.60;;;;;;6212847;23;20388;-74
2022/04/27 12:41:34;;;;;;;14.73;13.90;;;18.30;92.10;;;;;;6212638;23;20413;-75
2022/04/27 12:44:05;;;;;;;14.60;13.90;;;18.60;91.60;;;;;;6212263;23;20906;-75
2022/04/27 12:46:32;;;;;;;15.47;14.67;;;18.20;91.10;;;;;;6212785;23;20444;-75
2022/04/27 12:49:04;;;;;;;14.97;14.27;;;17.90;91.70;;;;;;6212383;23;20409;-74
2022/04/27 12:51:34;;;;;;;13.70;13.00;;;17.50;92.30;;;;;;6212639;23;20421;-75
2022/04/27 12:54:01;;;;;;;14.00;13.13;;;17.40;93.00;;;;;;6212785;23;20448;-74
2022/04/27 12:56:32;;;;;;;13.83;13.10;;;17.20;93.10;;;;;;6212136;23;20404;-75
2022/04/27 12:59:06;;;;;;;13.10;12.60;;;17.00;93.90;;;;;;6212666;23;20401;-75
2022/04/27 13:01:33;;;;;;;14.07;13.37;;;16.90;94.90;;;;;;6212666;23;20409;-74
2022/04/27 13:04:00;;;;;;;13.70;13.10;;;16.70;95.70;;;;;;6212111;23;20892;-75